sensor_id;sensor_type;location;lat;lon;timestamp;P1;durP1;ratioP1;P2;durP2;ratioP2
47958;SDS011;33718;50.910;-1.514;2023-04-22T00:01:45;14.48;;;8.75;;
47958;SDS011;33718;50.910;-1.514;2023-04-22T00:03:46;12.50;;;8.52;;
47958;SDS011;33718;50.910;-1.514;2023-04-22T00:05:51;14.02;;;9.02;;
47958;SDS011;33718;50.910;-1.514;2023-04-22T00:07:53;11.00;;;8.27;;
47958;SDS011;33718;50.910;-1.514;2023-04-22T00:12:01;12.50;;;9.03;;
47958;SDS011;33718;50.910;-1.514;2023-04-22T00:14:06;12.07;;;7.70;;
47958;SDS011;33718;50.910;-1.514;2023-04-22T00:16:07;9.88;;;8.70;;
47958;SDS011;33718;50.910;-1.514;2023-04-22T00:18:09;10.68;;;8.13;;
47958;SDS011;33718;50.910;-1.514;2023-04-22T00:20:19;11.82;;;8.02;;
47958;SDS011;33718;50.910;-1.514;2023-04-22T00:22:26;11.38;;;9.50;;
47958;SDS011;33718;50.910;-1.514;2023-04-22T00:24:30;11.32;;;8.27;;
47958;SDS011;33718;50.910;-1.514;2023-04-22T00:26:32;12.77;;;8.40;;
47958;SDS011;33718;50.910;-1.514;2023-04-22T00:28:33;10.40;;;8.35;;
47958;SDS011;33718;50.910;-1.514;2023-04-22T00:30:37;11.90;;;9.13;;
47958;SDS011;33718;50.910;-1.514;2023-04-22T00:32:42;11.07;;;8.60;;
47958;SDS011;33718;50.910;-1.514;2023-04-22T00:34:44;10.77;;;8.18;;
47958;SDS011;33718;50.910;-1.514;2023-04-22T00:36:45;9.35;;;7.63;;
47958;SDS011;33718;50.910;-1.514;2023-04-22T00:38:50;10.65;;;8.52;;
47958;SDS011;33718;50.910;-1.514;2023-04-22T00:40:54;9.85;;;7.90;;
47958;SDS011;33718;50.910;-1.514;2023-04-22T00:42:59;12.65;;;9.75;;
47958;SDS011;33718;50.910;-1.514;2023-04-22T00:45:04;12.80;;;8.27;;
47958;SDS011;33718;50.910;-1.514;2023-04-22T00:47:12;11.45;;;7.75;;
47958;SDS011;33718;50.910;-1.514;2023-04-22T00:49:14;10.85;;;7.40;;
47958;SDS011;33718;50.910;-1.514;2023-04-22T00:51:19;13.48;;;8.57;;
47958;SDS011;33718;50.910;-1.514;2023-04-22T00:53:23;13.05;;;8.57;;
47958;SDS011;33718;50.910;-1.514;2023-04-22T00:55:28;13.90;;;8.98;;
47958;SDS011;33718;50.910;-1.514;2023-04-22T00:57:30;17.25;;;8.77;;
47958;SDS011;33718;50.910;-1.514;2023-04-22T00:59:35;10.90;;;7.28;;
47958;SDS011;33718;50.910;-1.514;2023-04-22T01:01:40;10.15;;;6.85;;
47958;SDS011;33718;50.910;-1.514;2023-04-22T01:03:41;12.05;;;8.80;;
47958;SDS011;33718;50.910;-1.514;2023-04-22T01:05:46;9.98;;;8.02;;
47958;SDS011;33718;50.910;-1.514;2023-04-22T01:07:51;10.63;;;8.55;;
47958;SDS011;33718;50.910;-1.514;2023-04-22T01:11:59;7.97;;;7.13;;
47958;SDS011;33718;50.910;-1.514;2023-04-22T01:14:04;12.43;;;9.48;;
47958;SDS011;33718;50.910;-1.514;2023-04-22T01:16:09;13.90;;;9.00;;
47958;SDS011;33718;50.910;-1.514;2023-04-22T01:18:14;11.07;;;8.20;;
47958;SDS011;33718;50.910;-1.514;2023-04-22T01:20:15;9.98;;;8.13;;
47958;SDS011;33718;50.910;-1.514;2023-04-22T01:22:41;11.48;;;8.60;;
47958;SDS011;33718;50.910;-1.514;2023-04-22T01:24:44;13.68;;;7.70;;
47958;SDS011;33718;50.910;-1.514;2023-04-22T01:27:04;13.30;;;9.48;;
47958;SDS011;33718;50.910;-1.514;2023-04-22T01:29:09;17.05;;;10.85;;
47958;SDS011;33718;50.910;-1.514;2023-04-22T01:31:14;13.95;;;10.63;;
47958;SDS011;33718;50.910;-1.514;2023-04-22T01:33:15;14.95;;;9.95;;
47958;SDS011;33718;50.910;-1.514;2023-04-22T01:35:20;15.15;;;10.77;;
47958;SDS011;33718;50.910;-1.514;2023-04-22T01:37:21;18.42;;;9.77;;
47958;SDS011;33718;50.910;-1.514;2023-04-22T01:39:26;14.70;;;10.02;;
47958;SDS011;33718;50.910;-1.514;2023-04-22T01:41:28;16.23;;;10.55;;
47958;SDS011;33718;50.910;-1.514;2023-04-22T01:43:29;13.65;;;9.63;;
47958;SDS011;33718;50.910;-1.514;2023-04-22T01:47:38;17.87;;;10.27;;
47958;SDS011;33718;50.910;-1.514;2023-04-22T01:49:42;12.57;;;9.20;;
47958;SDS011;33718;50.910;-1.514;2023-04-22T01:51:46;16.75;;;10.60;;
47958;SDS011;33718;50.910;-1.514;2023-04-22T01:53:51;16.35;;;10.73;;
47958;SDS011;33718;50.910;-1.514;2023-04-22T01:55:52;13.30;;;9.80;;
47958;SDS011;33718;50.910;-1.514;2023-04-22T01:59:58;15.27;;;9.52;;
47958;SDS011;33718;50.910;-1.514;2023-04-22T02:02:00;14.23;;;9.82;;
47958;SDS011;33718;50.910;-1.514;2023-04-22T02:06:09;14.75;;;10.13;;
47958;SDS011;33718;50.910;-1.514;2023-04-22T02:08:29;13.70;;;9.23;;
47958;SDS011;33718;50.910;-1.514;2023-04-22T02:10:31;17.77;;;10.25;;
47958;SDS011;33718;50.910;-1.514;2023-04-22T02:12:51;14.93;;;10.55;;
47958;SDS011;33718;50.910;-1.514;2023-04-22T02:14:52;16.92;;;10.55;;
47958;SDS011;33718;50.910;-1.514;2023-04-22T02:16:56;19.30;;;12.43;;
47958;SDS011;33718;50.910;-1.514;2023-04-22T02:19:17;15.52;;;10.23;;
47958;SDS011;33718;50.910;-1.514;2023-04-22T02:21:21;15.63;;;10.45;;
47958;SDS011;33718;50.910;-1.514;2023-04-22T02:23:23;16.73;;;10.63;;
47958;SDS011;33718;50.910;-1.514;2023-04-22T02:25:25;15.07;;;9.90;;
47958;SDS011;33718;50.910;-1.514;2023-04-22T02:27:27;23.20;;;12.63;;
47958;SDS011;33718;50.910;-1.514;2023-04-22T02:29:28;22.75;;;11.02;;
47958;SDS011;33718;50.910;-1.514;2023-04-22T02:31:35;21.75;;;10.85;;
47958;SDS011;33718;50.910;-1.514;2023-04-22T02:33:39;20.85;;;11.60;;
47958;SDS011;33718;50.910;-1.514;2023-04-22T02:35:44;23.60;;;10.43;;
47958;SDS011;33718;50.910;-1.514;2023-04-22T02:37:45;17.38;;;9.48;;
47958;SDS011;33718;50.910;-1.514;2023-04-22T02:39:47;20.00;;;9.52;;
47958;SDS011;33718;50.910;-1.514;2023-04-22T02:41:52;15.20;;;8.15;;
47958;SDS011;33718;50.910;-1.514;2023-04-22T02:43:53;13.18;;;8.02;;
47958;SDS011;33718;50.910;-1.514;2023-04-22T02:45:57;12.90;;;7.65;;
47958;SDS011;33718;50.910;-1.514;2023-04-22T02:47:59;11.93;;;7.13;;
47958;SDS011;33718;50.910;-1.514;2023-04-22T02:50:01;10.93;;;7.45;;
47958;SDS011;33718;50.910;-1.514;2023-04-22T02:52:04;11.50;;;7.53;;
47958;SDS011;33718;50.910;-1.514;2023-04-22T02:54:09;10.13;;;7.07;;
47958;SDS011;33718;50.910;-1.514;2023-04-22T02:58:17;15.65;;;8.02;;
47958;SDS011;33718;50.910;-1.514;2023-04-22T03:02:23;13.40;;;8.13;;
47958;SDS011;33718;50.910;-1.514;2023-04-22T03:04:27;12.35;;;7.28;;
47958;SDS011;33718;50.910;-1.514;2023-04-22T03:06:29;12.43;;;8.52;;
47958;SDS011;33718;50.910;-1.514;2023-04-22T03:08:31;12.00;;;8.20;;
47958;SDS011;33718;50.910;-1.514;2023-04-22T03:10:32;12.30;;;7.60;;
47958;SDS011;33718;50.910;-1.514;2023-04-22T03:12:34;12.68;;;7.95;;
47958;SDS011;33718;50.910;-1.514;2023-04-22T03:14:38;9.13;;;7.78;;
47958;SDS011;33718;50.910;-1.514;2023-04-22T03:16:39;12.68;;;8.65;;
47958;SDS011;33718;50.910;-1.514;2023-04-22T03:18:41;10.65;;;8.93;;
47958;SDS011;33718;50.910;-1.514;2023-04-22T03:21:01;14.88;;;9.38;;
47958;SDS011;33718;50.910;-1.514;2023-04-22T03:23:04;13.05;;;7.50;;
47958;SDS011;33718;50.910;-1.514;2023-04-22T03:25:31;17.85;;;10.00;;
47958;SDS011;33718;50.910;-1.514;2023-04-22T03:27:37;13.65;;;9.43;;
47958;SDS011;33718;50.910;-1.514;2023-04-22T03:29:38;12.77;;;9.07;;
47958;SDS011;33718;50.910;-1.514;2023-04-22T03:31:40;14.25;;;9.05;;
47958;SDS011;33718;50.910;-1.514;2023-04-22T03:33:43;15.88;;;8.73;;
47958;SDS011;33718;50.910;-1.514;2023-04-22T03:35:47;15.23;;;9.32;;
47958;SDS011;33718;50.910;-1.514;2023-04-22T03:37:52;16.38;;;8.95;;
47958;SDS011;33718;50.910;-1.514;2023-04-22T03:39:54;12.00;;;8.65;;
47958;SDS011;33718;50.910;-1.514;2023-04-22T03:41:56;12.77;;;8.85;;
47958;SDS011;33718;50.910;-1.514;2023-04-22T03:46:05;27.73;;;10.07;;
47958;SDS011;33718;50.910;-1.514;2023-04-22T03:48:10;13.80;;;8.70;;
47958;SDS011;33718;50.910;-1.514;2023-04-22T03:50:14;15.07;;;9.85;;
47958;SDS011;33718;50.910;-1.514;2023-04-22T03:52:15;16.05;;;12.00;;
47958;SDS011;33718;50.910;-1.514;2023-04-22T03:54:36;16.95;;;9.93;;
47958;SDS011;33718;50.910;-1.514;2023-04-22T03:56:40;13.05;;;9.20;;
47958;SDS011;33718;50.910;-1.514;2023-04-22T03:58:41;14.23;;;9.88;;
47958;SDS011;33718;50.910;-1.514;2023-04-22T04:00:46;16.52;;;9.18;;
47958;SDS011;33718;50.910;-1.514;2023-04-22T04:04:52;14.23;;;9.38;;
47958;SDS011;33718;50.910;-1.514;2023-04-22T04:06:54;15.80;;;9.60;;
47958;SDS011;33718;50.910;-1.514;2023-04-22T04:08:56;17.35;;;10.05;;
47958;SDS011;33718;50.910;-1.514;2023-04-22T04:11:01;19.85;;;9.57;;
47958;SDS011;33718;50.910;-1.514;2023-04-22T04:13:05;15.52;;;9.57;;
47958;SDS011;33718;50.910;-1.514;2023-04-22T04:15:26;17.73;;;9.98;;
47958;SDS011;33718;50.910;-1.514;2023-04-22T04:17:30;16.95;;;10.55;;
47958;SDS011;33718;50.910;-1.514;2023-04-22T04:19:31;18.48;;;10.77;;
47958;SDS011;33718;50.910;-1.514;2023-04-22T04:21:33;13.98;;;10.38;;
47958;SDS011;33718;50.910;-1.514;2023-04-22T04:25:57;13.88;;;10.18;;
47958;SDS011;33718;50.910;-1.514;2023-04-22T04:28:01;18.95;;;10.80;;
47958;SDS011;33718;50.910;-1.514;2023-04-22T04:30:06;17.02;;;10.55;;
47958;SDS011;33718;50.910;-1.514;2023-04-22T04:32:07;21.23;;;11.10;;
47958;SDS011;33718;50.910;-1.514;2023-04-22T04:34:10;16.02;;;10.77;;
47958;SDS011;33718;50.910;-1.514;2023-04-22T04:36:14;18.58;;;11.00;;
47958;SDS011;33718;50.910;-1.514;2023-04-22T04:38:18;16.75;;;10.65;;
47958;SDS011;33718;50.910;-1.514;2023-04-22T04:40:20;15.50;;;9.57;;
47958;SDS011;33718;50.910;-1.514;2023-04-22T04:42:22;16.90;;;11.77;;
47958;SDS011;33718;50.910;-1.514;2023-04-22T04:44:27;17.48;;;10.57;;
47958;SDS011;33718;50.910;-1.514;2023-04-22T04:46:31;17.83;;;11.00;;
47958;SDS011;33718;50.910;-1.514;2023-04-22T04:48:35;16.27;;;10.77;;
47958;SDS011;33718;50.910;-1.514;2023-04-22T04:50:55;15.88;;;11.02;;
47958;SDS011;33718;50.910;-1.514;2023-04-22T04:52:56;16.10;;;10.27;;
47958;SDS011;33718;50.910;-1.514;2023-04-22T04:54:58;17.98;;;11.20;;
47958;SDS011;33718;50.910;-1.514;2023-04-22T04:59:22;24.83;;;12.00;;
47958;SDS011;33718;50.910;-1.514;2023-04-22T05:01:26;18.55;;;10.90;;
47958;SDS011;33718;50.910;-1.514;2023-04-22T05:03:28;16.55;;;11.13;;
47958;SDS011;33718;50.910;-1.514;2023-04-22T05:05:32;19.75;;;11.63;;
47958;SDS011;33718;50.910;-1.514;2023-04-22T05:07:34;22.70;;;12.02;;
47958;SDS011;33718;50.910;-1.514;2023-04-22T05:09:35;18.65;;;11.52;;
47958;SDS011;33718;50.910;-1.514;2023-04-22T05:11:38;18.90;;;11.35;;
47958;SDS011;33718;50.910;-1.514;2023-04-22T05:13:58;17.88;;;12.30;;
47958;SDS011;33718;50.910;-1.514;2023-04-22T05:16:00;20.88;;;12.18;;
47958;SDS011;33718;50.910;-1.514;2023-04-22T05:20:09;17.15;;;10.05;;
47958;SDS011;33718;50.910;-1.514;2023-04-22T05:22:13;18.23;;;11.45;;
47958;SDS011;33718;50.910;-1.514;2023-04-22T05:24:15;18.90;;;11.95;;
47958;SDS011;33718;50.910;-1.514;2023-04-22T05:26:19;19.55;;;12.40;;
47958;SDS011;33718;50.910;-1.514;2023-04-22T05:28:24;18.10;;;12.77;;
47958;SDS011;33718;50.910;-1.514;2023-04-22T05:30:28;17.83;;;11.05;;
47958;SDS011;33718;50.910;-1.514;2023-04-22T05:32:48;17.95;;;11.45;;
47958;SDS011;33718;50.910;-1.514;2023-04-22T05:35:09;17.88;;;12.98;;
47958;SDS011;33718;50.910;-1.514;2023-04-22T05:37:11;18.15;;;10.93;;
47958;SDS011;33718;50.910;-1.514;2023-04-22T05:39:12;20.73;;;11.50;;
47958;SDS011;33718;50.910;-1.514;2023-04-22T05:41:14;19.65;;;12.63;;
47958;SDS011;33718;50.910;-1.514;2023-04-22T05:43:16;22.55;;;12.43;;
47958;SDS011;33718;50.910;-1.514;2023-04-22T05:45:17;19.60;;;12.70;;
47958;SDS011;33718;50.910;-1.514;2023-04-22T05:49:25;21.42;;;14.30;;
47958;SDS011;33718;50.910;-1.514;2023-04-22T05:51:29;18.23;;;11.82;;
47958;SDS011;33718;50.910;-1.514;2023-04-22T05:55:38;25.47;;;12.60;;
47958;SDS011;33718;50.910;-1.514;2023-04-22T05:57:39;20.67;;;12.82;;
47958;SDS011;33718;50.910;-1.514;2023-04-22T06:01:48;21.60;;;11.98;;
47958;SDS011;33718;50.910;-1.514;2023-04-22T06:03:53;21.58;;;12.52;;
47958;SDS011;33718;50.910;-1.514;2023-04-22T06:05:54;18.85;;;11.98;;
47958;SDS011;33718;50.910;-1.514;2023-04-22T06:07:59;17.40;;;12.20;;
47958;SDS011;33718;50.910;-1.514;2023-04-22T06:12:05;20.50;;;12.23;;
47958;SDS011;33718;50.910;-1.514;2023-04-22T06:14:26;19.58;;;13.13;;
47958;SDS011;33718;50.910;-1.514;2023-04-22T06:16:28;20.08;;;13.25;;
47958;SDS011;33718;50.910;-1.514;2023-04-22T06:18:29;19.42;;;13.32;;
47958;SDS011;33718;50.910;-1.514;2023-04-22T06:20:32;17.92;;;12.77;;
47958;SDS011;33718;50.910;-1.514;2023-04-22T06:22:38;20.75;;;13.50;;
47958;SDS011;33718;50.910;-1.514;2023-04-22T06:24:40;23.85;;;13.60;;
47958;SDS011;33718;50.910;-1.514;2023-04-22T06:26:41;19.65;;;13.57;;
47958;SDS011;33718;50.910;-1.514;2023-04-22T06:28:46;22.58;;;13.82;;
47958;SDS011;33718;50.910;-1.514;2023-04-22T06:30:54;26.77;;;13.77;;
47958;SDS011;33718;50.910;-1.514;2023-04-22T06:33:09;18.10;;;14.00;;
47958;SDS011;33718;50.910;-1.514;2023-04-22T06:35:23;23.92;;;14.85;;
47958;SDS011;33718;50.910;-1.514;2023-04-22T06:37:31;21.35;;;14.25;;
47958;SDS011;33718;50.910;-1.514;2023-04-22T06:39:45;20.58;;;14.15;;
47958;SDS011;33718;50.910;-1.514;2023-04-22T06:41:56;21.55;;;15.38;;
47958;SDS011;33718;50.910;-1.514;2023-04-22T06:44:06;22.70;;;14.93;;
47958;SDS011;33718;50.910;-1.514;2023-04-22T06:46:17;22.80;;;14.45;;
47958;SDS011;33718;50.910;-1.514;2023-04-22T06:48:26;22.15;;;15.30;;
47958;SDS011;33718;50.910;-1.514;2023-04-22T06:50:35;23.85;;;15.65;;
47958;SDS011;33718;50.910;-1.514;2023-04-22T06:52:48;25.05;;;15.57;;
47958;SDS011;33718;50.910;-1.514;2023-04-22T06:55:16;24.95;;;14.80;;
47958;SDS011;33718;50.910;-1.514;2023-04-22T06:57:28;27.90;;;15.70;;
47958;SDS011;33718;50.910;-1.514;2023-04-22T06:59:39;26.13;;;15.23;;
47958;SDS011;33718;50.910;-1.514;2023-04-22T07:01:53;22.63;;;14.25;;
47958;SDS011;33718;50.910;-1.514;2023-04-22T07:04:05;21.08;;;13.85;;
47958;SDS011;33718;50.910;-1.514;2023-04-22T07:06:17;23.65;;;15.60;;
47958;SDS011;33718;50.910;-1.514;2023-04-22T07:08:19;22.40;;;14.55;;
47958;SDS011;33718;50.910;-1.514;2023-04-22T07:10:20;22.27;;;15.50;;
47958;SDS011;33718;50.910;-1.514;2023-04-22T07:12:22;23.90;;;15.15;;
47958;SDS011;33718;50.910;-1.514;2023-04-22T07:14:28;22.85;;;15.38;;
47958;SDS011;33718;50.910;-1.514;2023-04-22T07:16:30;29.00;;;18.38;;
47958;SDS011;33718;50.910;-1.514;2023-04-22T07:18:35;26.40;;;16.63;;
47958;SDS011;33718;50.910;-1.514;2023-04-22T07:20:36;27.73;;;17.88;;
47958;SDS011;33718;50.910;-1.514;2023-04-22T07:22:38;26.38;;;16.25;;
47958;SDS011;33718;50.910;-1.514;2023-04-22T07:24:42;25.50;;;16.85;;
47958;SDS011;33718;50.910;-1.514;2023-04-22T07:27:02;29.17;;;17.08;;
47958;SDS011;33718;50.910;-1.514;2023-04-22T07:29:04;25.00;;;17.88;;
47958;SDS011;33718;50.910;-1.514;2023-04-22T07:31:08;26.50;;;16.77;;
47958;SDS011;33718;50.910;-1.514;2023-04-22T07:33:13;26.60;;;19.10;;
47958;SDS011;33718;50.910;-1.514;2023-04-22T07:35:33;25.63;;;18.05;;
47958;SDS011;33718;50.910;-1.514;2023-04-22T07:37:35;27.45;;;17.52;;
47958;SDS011;33718;50.910;-1.514;2023-04-22T07:39:36;25.48;;;18.25;;
47958;SDS011;33718;50.910;-1.514;2023-04-22T07:41:38;26.42;;;17.55;;
47958;SDS011;33718;50.910;-1.514;2023-04-22T07:43:42;26.90;;;18.40;;
47958;SDS011;33718;50.910;-1.514;2023-04-22T07:45:44;29.73;;;18.85;;
47958;SDS011;33718;50.910;-1.514;2023-04-22T07:47:45;27.05;;;17.77;;
47958;SDS011;33718;50.910;-1.514;2023-04-22T07:49:47;26.55;;;18.33;;
47958;SDS011;33718;50.910;-1.514;2023-04-22T07:51:49;25.98;;;16.00;;
47958;SDS011;33718;50.910;-1.514;2023-04-22T07:53:51;29.00;;;20.23;;
47958;SDS011;33718;50.910;-1.514;2023-04-22T07:55:52;30.95;;;20.92;;
47958;SDS011;33718;50.910;-1.514;2023-04-22T07:57:55;33.25;;;22.20;;
47958;SDS011;33718;50.910;-1.514;2023-04-22T07:59:56;32.47;;;22.50;;
47958;SDS011;33718;50.910;-1.514;2023-04-22T08:01:58;34.88;;;23.23;;
47958;SDS011;33718;50.910;-1.514;2023-04-22T08:03:59;42.03;;;26.38;;
47958;SDS011;33718;50.910;-1.514;2023-04-22T08:06:01;39.00;;;24.95;;
47958;SDS011;33718;50.910;-1.514;2023-04-22T08:08:03;37.85;;;25.73;;
47958;SDS011;33718;50.910;-1.514;2023-04-22T08:10:07;36.08;;;24.70;;
47958;SDS011;33718;50.910;-1.514;2023-04-22T08:12:09;38.15;;;24.65;;
47958;SDS011;33718;50.910;-1.514;2023-04-22T08:14:14;38.72;;;26.08;;
47958;SDS011;33718;50.910;-1.514;2023-04-22T08:18:22;40.83;;;27.38;;
47958;SDS011;33718;50.910;-1.514;2023-04-22T08:20:23;42.80;;;28.00;;
47958;SDS011;33718;50.910;-1.514;2023-04-22T08:22:28;37.08;;;26.05;;
47958;SDS011;33718;50.910;-1.514;2023-04-22T08:24:33;39.70;;;27.80;;
47958;SDS011;33718;50.910;-1.514;2023-04-22T08:26:37;38.90;;;26.45;;
47958;SDS011;33718;50.910;-1.514;2023-04-22T08:28:40;36.88;;;26.73;;
47958;SDS011;33718;50.910;-1.514;2023-04-22T08:30:42;44.55;;;28.77;;
47958;SDS011;33718;50.910;-1.514;2023-04-22T08:32:46;35.17;;;27.02;;
47958;SDS011;33718;50.910;-1.514;2023-04-22T08:34:48;32.95;;;26.52;;
47958;SDS011;33718;50.910;-1.514;2023-04-22T08:36:57;34.67;;;26.45;;
47958;SDS011;33718;50.910;-1.514;2023-04-22T08:39:17;35.47;;;27.35;;
47958;SDS011;33718;50.910;-1.514;2023-04-22T08:41:21;33.40;;;26.80;;
47958;SDS011;33718;50.910;-1.514;2023-04-22T08:43:31;36.22;;;28.10;;
47958;SDS011;33718;50.910;-1.514;2023-04-22T08:45:32;38.92;;;29.88;;
47958;SDS011;33718;50.910;-1.514;2023-04-22T08:47:37;37.20;;;27.48;;
47958;SDS011;33718;50.910;-1.514;2023-04-22T08:49:42;34.95;;;27.67;;
47958;SDS011;33718;50.910;-1.514;2023-04-22T08:52:02;37.35;;;27.95;;
47958;SDS011;33718;50.910;-1.514;2023-04-22T08:54:22;37.75;;;27.58;;
47958;SDS011;33718;50.910;-1.514;2023-04-22T08:56:27;35.20;;;26.60;;
47958;SDS011;33718;50.910;-1.514;2023-04-22T08:58:32;36.45;;;28.45;;
47958;SDS011;33718;50.910;-1.514;2023-04-22T09:00:40;35.42;;;27.20;;
47958;SDS011;33718;50.910;-1.514;2023-04-22T09:02:42;33.85;;;26.92;;
47958;SDS011;33718;50.910;-1.514;2023-04-22T09:04:49;33.90;;;25.83;;
47958;SDS011;33718;50.910;-1.514;2023-04-22T09:06:50;31.77;;;24.88;;
47958;SDS011;33718;50.910;-1.514;2023-04-22T09:08:52;601.72;;;543.13;;
47958;SDS011;33718;50.910;-1.514;2023-04-22T09:10:55;608.80;;;550.17;;
47958;SDS011;33718;50.910;-1.514;2023-04-22T09:12:57;633.92;;;574.55;;
47958;SDS011;33718;50.910;-1.514;2023-04-22T09:15:18;659.03;;;599.55;;
47958;SDS011;33718;50.910;-1.514;2023-04-22T09:17:32;666.17;;;607.10;;
47958;SDS011;33718;50.910;-1.514;2023-04-22T09:19:34;692.47;;;632.38;;
47958;SDS011;33718;50.910;-1.514;2023-04-22T09:21:35;700.53;;;640.75;;
47958;SDS011;33718;50.910;-1.514;2023-04-22T09:23:50;706.03;;;646.30;;
47958;SDS011;33718;50.910;-1.514;2023-04-22T09:25:52;677.03;;;618.25;;
47958;SDS011;33718;50.910;-1.514;2023-04-22T09:27:55;656.83;;;598.60;;
47958;SDS011;33718;50.910;-1.514;2023-04-22T09:29:56;627.47;;;570.05;;
47958;SDS011;33718;50.910;-1.514;2023-04-22T09:31:58;598.30;;;541.60;;
47958;SDS011;33718;50.910;-1.514;2023-04-22T09:34:06;516.13;;;461.23;;
47958;SDS011;33718;50.910;-1.514;2023-04-22T09:36:20;480.67;;;396.37;;
47958;SDS011;33718;50.910;-1.514;2023-04-22T09:38:33;475.70;;;365.23;;
47958;SDS011;33718;50.910;-1.514;2023-04-22T09:40:50;472.23;;;358.53;;
47958;SDS011;33718;50.910;-1.514;2023-04-22T09:43:08;470.47;;;352.60;;
47958;SDS011;33718;50.910;-1.514;2023-04-22T09:45:35;472.33;;;358.27;;
47958;SDS011;33718;50.910;-1.514;2023-04-22T09:47:48;476.77;;;366.97;;
47958;SDS011;33718;50.910;-1.514;2023-04-22T09:50:04;479.97;;;403.33;;
47958;SDS011;33718;50.910;-1.514;2023-04-22T09:52:20;491.03;;;436.83;;
47958;SDS011;33718;50.910;-1.514;2023-04-22T09:54:36;473.90;;;403.00;;
47958;SDS011;33718;50.910;-1.514;2023-04-22T09:57:05;487.53;;;434.37;;
47958;SDS011;33718;50.910;-1.514;2023-04-22T09:59:22;502.50;;;449.37;;
47958;SDS011;33718;50.910;-1.514;2023-04-22T10:01:40;522.73;;;468.97;;
47958;SDS011;33718;50.910;-1.514;2023-04-22T10:03:51;527.13;;;473.83;;
47958;SDS011;33718;50.910;-1.514;2023-04-22T10:06:00;472.60;;;420.83;;
47958;SDS011;33718;50.910;-1.514;2023-04-22T10:08:08;457.27;;;388.60;;
47958;SDS011;33718;50.910;-1.514;2023-04-22T10:10:15;452.70;;;351.30;;
47958;SDS011;33718;50.910;-1.514;2023-04-22T10:12:23;445.07;;;327.73;;
47958;SDS011;33718;50.910;-1.514;2023-04-22T10:14:38;436.43;;;300.47;;
47958;SDS011;33718;50.910;-1.514;2023-04-22T10:16:44;432.37;;;272.83;;
47958;SDS011;33718;50.910;-1.514;2023-04-22T10:20:48;425.37;;;218.83;;
47958;SDS011;33718;50.910;-1.514;2023-04-22T10:22:53;420.13;;;210.30;;
47958;SDS011;33718;50.910;-1.514;2023-04-22T10:24:59;419.93;;;204.37;;
47958;SDS011;33718;50.910;-1.514;2023-04-22T10:27:19;419.07;;;180.73;;
47958;SDS011;33718;50.910;-1.514;2023-04-22T10:29:25;413.60;;;174.03;;
47958;SDS011;33718;50.910;-1.514;2023-04-22T10:31:29;415.80;;;171.57;;
47958;SDS011;33718;50.910;-1.514;2023-04-22T10:33:50;408.97;;;157.70;;
47958;SDS011;33718;50.910;-1.514;2023-04-22T10:38:15;405.87;;;143.90;;
47958;SDS011;33718;50.910;-1.514;2023-04-22T10:40:20;405.87;;;136.93;;
47958;SDS011;33718;50.910;-1.514;2023-04-22T10:42:25;400.73;;;132.37;;
47958;SDS011;33718;50.910;-1.514;2023-04-22T10:44:29;402.63;;;126.27;;
47958;SDS011;33718;50.910;-1.514;2023-04-22T10:48:48;401.67;;;122.33;;
47958;SDS011;33718;50.910;-1.514;2023-04-22T10:50:50;394.27;;;116.03;;
47958;SDS011;33718;50.910;-1.514;2023-04-22T10:52:56;395.30;;;116.73;;
47958;SDS011;33718;50.910;-1.514;2023-04-22T10:54:58;403.97;;;122.40;;
47958;SDS011;33718;50.910;-1.514;2023-04-22T10:59:14;389.77;;;112.80;;
47958;SDS011;33718;50.910;-1.514;2023-04-22T11:01:16;394.87;;;113.73;;
47958;SDS011;33718;50.910;-1.514;2023-04-22T11:03:24;388.57;;;112.90;;
47958;SDS011;33718;50.910;-1.514;2023-04-22T11:05:26;390.60;;;117.07;;
47958;SDS011;33718;50.910;-1.514;2023-04-22T11:07:28;396.23;;;116.87;;
47958;SDS011;33718;50.910;-1.514;2023-04-22T11:09:32;255.02;;;75.18;;
47958;SDS011;33718;50.910;-1.514;2023-04-22T11:11:36;290.97;;;85.73;;
47958;SDS011;33718;50.910;-1.514;2023-04-22T11:13:39;290.70;;;85.70;;
47958;SDS011;33718;50.910;-1.514;2023-04-22T11:15:42;6.05;;;3.10;;
47958;SDS011;33718;50.910;-1.514;2023-04-22T11:17:45;8.20;;;6.20;;
47958;SDS011;33718;50.910;-1.514;2023-04-22T11:19:46;8.07;;;4.33;;
47958;SDS011;33718;50.910;-1.514;2023-04-22T11:21:51;8.50;;;4.37;;
47958;SDS011;33718;50.910;-1.514;2023-04-22T11:23:53;9.25;;;7.75;;
47958;SDS011;33718;50.910;-1.514;2023-04-22T11:25:55;13.98;;;9.88;;
47958;SDS011;33718;50.910;-1.514;2023-04-22T11:28:00;10.20;;;9.13;;
47958;SDS011;33718;50.910;-1.514;2023-04-22T11:32:12;10.48;;;9.43;;
47958;SDS011;33718;50.910;-1.514;2023-04-22T11:34:14;13.13;;;9.10;;
47958;SDS011;33718;50.910;-1.514;2023-04-22T11:36:15;10.77;;;9.13;;
47958;SDS011;33718;50.910;-1.514;2023-04-22T11:38:22;11.68;;;9.05;;
47958;SDS011;33718;50.910;-1.514;2023-04-22T11:40:27;11.00;;;8.68;;
47958;SDS011;33718;50.910;-1.514;2023-04-22T11:42:36;10.90;;;8.25;;
47958;SDS011;33718;50.910;-1.514;2023-04-22T11:44:38;10.52;;;8.13;;
47958;SDS011;33718;50.910;-1.514;2023-04-22T11:46:43;7.97;;;7.03;;
47958;SDS011;33718;50.910;-1.514;2023-04-22T11:49:10;14.38;;;7.88;;
47958;SDS011;33718;50.910;-1.514;2023-04-22T11:51:11;9.43;;;7.35;;
47958;SDS011;33718;50.910;-1.514;2023-04-22T11:53:14;10.82;;;6.90;;
47958;SDS011;33718;50.910;-1.514;2023-04-22T11:57:39;7.82;;;6.47;;
47958;SDS011;33718;50.910;-1.514;2023-04-22T11:59:41;408.23;;;159.10;;
47958;SDS011;33718;50.910;-1.514;2023-04-22T12:01:46;404.00;;;143.67;;
47958;SDS011;33718;50.910;-1.514;2023-04-22T12:03:56;125.80;;;16.35;;
47958;SDS011;33718;50.910;-1.514;2023-04-22T12:06:03;318.95;;;226.90;;
47958;SDS011;33718;50.910;-1.514;2023-04-22T12:08:14;424.23;;;278.05;;
47958;SDS011;33718;50.910;-1.514;2023-04-22T12:10:16;12.35;;;8.40;;
47958;SDS011;33718;50.910;-1.514;2023-04-22T12:14:30;166.82;;;84.85;;
47958;SDS011;33718;50.910;-1.514;2023-04-22T12:16:38;11.02;;;9.18;;
47958;SDS011;33718;50.910;-1.514;2023-04-22T12:18:49;9.48;;;7.70;;
47958;SDS011;33718;50.910;-1.514;2023-04-22T12:20:57;11.52;;;8.98;;
47958;SDS011;33718;50.910;-1.514;2023-04-22T12:23:02;11.05;;;8.23;;
47958;SDS011;33718;50.910;-1.514;2023-04-22T12:25:04;9.57;;;8.00;;
47958;SDS011;33718;50.910;-1.514;2023-04-22T12:27:08;10.23;;;8.70;;
47958;SDS011;33718;50.910;-1.514;2023-04-22T12:29:13;12.73;;;8.85;;
47958;SDS011;33718;50.910;-1.514;2023-04-22T12:31:17;9.38;;;8.45;;
47958;SDS011;33718;50.910;-1.514;2023-04-22T12:33:22;10.68;;;8.68;;
47958;SDS011;33718;50.910;-1.514;2023-04-22T12:35:23;8.57;;;7.57;;
47958;SDS011;33718;50.910;-1.514;2023-04-22T12:37:25;8.88;;;7.85;;
47958;SDS011;33718;50.910;-1.514;2023-04-22T12:39:28;9.02;;;6.60;;
47958;SDS011;33718;50.910;-1.514;2023-04-22T12:41:32;11.50;;;7.82;;
47958;SDS011;33718;50.910;-1.514;2023-04-22T12:43:42;8.90;;;7.55;;
47958;SDS011;33718;50.910;-1.514;2023-04-22T12:45:52;10.55;;;6.97;;
47958;SDS011;33718;50.910;-1.514;2023-04-22T12:48:06;9.90;;;7.40;;
47958;SDS011;33718;50.910;-1.514;2023-04-22T12:50:15;8.80;;;7.35;;
47958;SDS011;33718;50.910;-1.514;2023-04-22T12:52:28;14.10;;;8.50;;
47958;SDS011;33718;50.910;-1.514;2023-04-22T12:54:38;9.98;;;8.98;;
47958;SDS011;33718;50.910;-1.514;2023-04-22T12:56:50;9.88;;;8.27;;
47958;SDS011;33718;50.910;-1.514;2023-04-22T12:59:00;9.68;;;8.48;;